This is the latest recevied weather packets stored in our database for station/object HK6RM-19. If no packets are shown the sender has not sent any weather packets the latest 10 day(s).
| Time | Temp. | Humidity | Pressure | Rain* | Wind** | Luminosity | Snow |
|---|---|---|---|---|---|---|---|
| 1787500888 | 20° C | 72% | 1015 hPa | 0 mm | - | - | - |
| 1787500047 | 20° C | 72% | 1015 hPa | 0 mm | - | - | - |
| 1787499207 | 20° C | 71% | 1015 hPa | 0 mm | - | - | - |
| 1787498366 | 20° C | 69% | 1015 hPa | 0 mm | - | - | - |
| 1787497526 | 20° C | 69% | 1015 hPa | 0 mm | - | - | - |
| 1787496685 | 20° C | 68% | 1015 hPa | 0 mm | - | - | - |
| 1787495845 | 18.89° C | 64% | 1015 hPa | 0 mm | - | - | - |
| 1787495005 | 18.89° C | 63% | 1016 hPa | 0 mm | - | - | - |
| 1787494164 | 19.44° C | 63% | 1016 hPa | 0 mm | - | - | - |
| 1787493324 | 19.44° C | 63% | 1016 hPa | 0 mm | - | - | - |
| 1787492483 | 15.56° C | 77% | 1016 hPa | 0 mm | - | - | - |
| 1787491643 | 15.56° C | 77% | 1017 hPa | 0 mm | - | - | - |
| 1787490802 | 15.56° C | 77% | 1017 hPa | 0 mm | - | - | - |
| 1787489961 | 15.56° C | 77% | 1017 hPa | 0 mm | - | - | - |
| 1787489120 | 15.56° C | 77% | 1017 hPa | 0 mm | - | - | - |
| 1787488280 | 13.33° C | 82% | 1017 hPa | 0 mm | - | - | - |
| 1787487439 | 13.89° C | 82% | 1017 hPa | 0 mm | - | - | - |
| 1787486599 | 13.89° C | 82% | 1017 hPa | 0 mm | - | - | - |
| 1787485758 | 14.44° C | 82% | 1017 hPa | 0 mm | - | - | - |
| 1787484918 | 11.11° C | 81% | 1017 hPa | 0 mm | - | - | - |
| 1787484077 | 11.11° C | 81% | 1017 hPa | 0 mm | - | - | - |
| 1787483237 | 11.11° C | 81% | 1017 hPa | 0 mm | - | - | - |
| 1787482396 | 11.11° C | 81% | 1017 hPa | 0 mm | - | - | - |
| 1787481556 | 11.11° C | 81% | 1017 hPa | 0 mm | - | - | - |
| 1787480715 | 11.11° C | 81% | 1016 hPa | 0 mm | - | - | - |
* Rain latest hour (hover to see other rain measurements)
** Current wind speed in m/s (hover to see current wind gust speed)